createdAt,value
2018-09-23T00:00:25.221Z,99.50
2018-09-23T00:02:54.105Z,99.70
2018-09-23T00:05:23.070Z,99.10
2018-09-23T00:07:51.846Z,99.20
2018-09-23T00:10:20.625Z,99.20
2018-09-23T00:12:49.418Z,99.00
2018-09-23T00:15:18.212Z,99.60
2018-09-23T00:17:47.185Z,99.40
2018-09-23T00:20:16.073Z,99.80
2018-09-23T00:22:44.927Z,99.60
2018-09-23T00:25:14.024Z,99.90
2018-09-23T00:27:42.778Z,99.50
2018-09-23T00:30:11.564Z,99.60
2018-09-23T00:32:40.381Z,99.60
2018-09-23T00:35:09.385Z,99.40
2018-09-23T00:37:38.172Z,99.90
2018-09-23T00:40:07.051Z,99.70
2018-09-23T00:42:36.023Z,99.90
2018-09-23T00:45:04.848Z,99.80
2018-09-23T00:47:33.637Z,99.60
2018-09-23T00:50:02.519Z,99.50
2018-09-23T00:52:31.419Z,99.90
2018-09-23T00:55:00.182Z,99.70
2018-09-23T00:57:28.986Z,99.90
2018-09-23T00:59:57.854Z,99.70
2018-09-23T01:02:26.842Z,99.90
2018-09-23T01:04:55.672Z,99.90
2018-09-23T01:07:24.696Z,99.90
2018-09-23T01:09:53.482Z,99.90
2018-09-23T01:12:22.385Z,99.90
2018-09-23T01:14:51.339Z,99.90
2018-09-23T01:17:20.126Z,99.90
2018-09-23T01:19:49.057Z,99.90
2018-09-23T01:22:17.910Z,99.90
2018-09-23T01:24:46.678Z,99.90
2018-09-23T01:27:15.593Z,99.90
2018-09-23T01:29:44.687Z,99.90
2018-09-23T01:32:13.478Z,99.90
2018-09-23T01:34:42.238Z,99.90
2018-09-23T01:37:11.071Z,99.90
2018-09-23T01:39:40.069Z,99.90
2018-09-23T01:42:08.832Z,99.90
2018-09-23T01:44:37.726Z,99.90
2018-09-23T01:47:06.565Z,99.90
2018-09-23T01:49:35.329Z,99.90
2018-09-23T01:52:04.200Z,99.90
2018-09-23T01:54:32.953Z,99.90
2018-09-23T01:57:01.736Z,99.90
2018-09-23T01:59:30.562Z,99.90
2018-09-23T02:01:59.556Z,99.90
2018-09-23T02:04:28.294Z,99.90
2018-09-23T02:06:57.118Z,99.90
2018-09-23T02:09:25.901Z,99.90
2018-09-23T02:11:54.913Z,99.90
2018-09-23T02:14:23.696Z,99.90
2018-09-23T02:16:52.479Z,99.90
2018-09-23T02:19:21.317Z,99.90
2018-09-23T02:21:50.095Z,99.90
2018-09-23T02:24:19.069Z,99.90
2018-09-23T02:26:47.995Z,99.90
2018-09-23T02:29:16.853Z,99.90
2018-09-23T02:31:45.663Z,99.90
2018-09-23T02:34:14.530Z,99.90
2018-09-23T02:36:43.338Z,99.90
2018-09-23T02:39:12.414Z,99.90
2018-09-23T02:41:41.202Z,99.90
2018-09-23T02:44:09.941Z,99.90
2018-09-23T02:46:38.884Z,99.90
2018-09-23T02:49:07.671Z,99.90
2018-09-23T02:51:36.461Z,99.90
2018-09-23T02:54:05.454Z,99.90
2018-09-23T02:56:34.242Z,99.90
2018-09-23T02:59:03.042Z,99.90
2018-09-23T03:01:31.924Z,99.90
2018-09-23T03:04:00.702Z,99.90
2018-09-23T03:06:29.482Z,99.90
2018-09-23T03:08:58.243Z,99.90
2018-09-23T03:11:27.027Z,99.90
2018-09-23T03:13:55.870Z,99.90
2018-09-23T03:16:24.863Z,99.90
2018-09-23T03:18:53.651Z,99.90
2018-09-23T03:21:22.396Z,99.90
2018-09-23T03:23:51.394Z,99.90
2018-09-23T03:26:20.139Z,99.90
2018-09-23T03:28:48.922Z,99.90
2018-09-23T03:31:17.754Z,99.90
2018-09-23T03:33:46.559Z,99.90
2018-09-23T03:36:15.381Z,99.90
2018-09-23T03:38:44.167Z,99.90
2018-09-23T03:41:13.000Z,99.90
2018-09-23T03:43:41.845Z,99.90
2018-09-23T03:46:10.683Z,99.90
2018-09-23T03:48:39.530Z,99.90
2018-09-23T03:51:08.285Z,99.90
2018-09-23T03:53:37.338Z,99.90
2018-09-23T03:56:06.227Z,99.90
2018-09-23T03:58:34.995Z,99.90
2018-09-23T04:01:03.781Z,99.90
2018-09-23T04:03:32.568Z,99.90
2018-09-23T04:06:01.382Z,99.90
2018-09-23T04:08:30.266Z,99.90
2018-09-23T04:10:59.058Z,99.90
2018-09-23T04:13:27.934Z,99.90
2018-09-23T04:15:56.891Z,99.90
2018-09-23T04:18:25.713Z,99.90
2018-09-23T04:20:54.513Z,99.90
2018-09-23T04:23:23.450Z,99.90
2018-09-23T04:25:52.391Z,99.90
2018-09-23T04:28:21.159Z,99.90
2018-09-23T04:30:49.990Z,99.90
2018-09-23T04:33:18.854Z,99.90
2018-09-23T04:35:47.666Z,99.90
2018-09-23T04:38:16.547Z,99.90
2018-09-23T04:40:45.370Z,99.90
2018-09-23T04:43:14.154Z,99.90
2018-09-23T04:45:42.925Z,99.90
2018-09-23T04:48:11.729Z,99.90
2018-09-23T04:50:40.580Z,99.90
2018-09-23T04:53:09.447Z,99.90
2018-09-23T04:55:38.218Z,99.90
2018-09-23T04:58:07.194Z,99.90
2018-09-23T05:00:36.005Z,99.90
2018-09-23T05:03:04.967Z,99.90
2018-09-23T05:05:33.749Z,99.90
2018-09-23T05:08:02.519Z,99.90
2018-09-23T05:10:31.303Z,99.90
2018-09-23T05:13:00.478Z,99.90
2018-09-23T05:15:29.325Z,99.90
2018-09-23T05:17:58.122Z,99.90
2018-09-23T05:20:27.074Z,99.90
2018-09-23T05:22:55.998Z,99.90
2018-09-23T05:25:24.857Z,99.90
2018-09-23T05:27:53.748Z,99.90
2018-09-23T05:30:22.515Z,99.90
2018-09-23T05:32:51.330Z,99.90
2018-09-23T05:35:20.147Z,99.90
2018-09-23T05:37:49.006Z,99.90
2018-09-23T05:40:17.861Z,99.90
2018-09-23T05:42:46.651Z,99.90
2018-09-23T05:45:15.414Z,99.90
2018-09-23T05:47:44.218Z,99.90
2018-09-23T05:50:13.100Z,99.90
2018-09-23T05:52:42.032Z,99.90
2018-09-23T05:55:10.796Z,99.90
2018-09-23T05:57:40.035Z,99.90
2018-09-23T06:00:09.986Z,99.90
2018-09-23T06:02:38.760Z,99.90
2018-09-23T06:05:07.605Z,99.90
2018-09-23T06:07:36.396Z,99.90
2018-09-23T06:10:05.618Z,99.90
2018-09-23T06:12:34.442Z,99.90
2018-09-23T06:15:03.604Z,99.90
2018-09-23T06:17:32.354Z,99.90
2018-09-23T06:20:01.118Z,99.90
2018-09-23T06:22:29.906Z,99.90
2018-09-23T06:24:58.689Z,99.90
2018-09-23T06:27:27.757Z,99.90
2018-09-23T06:29:56.548Z,99.90
2018-09-23T06:32:25.361Z,99.90
2018-09-23T06:34:54.543Z,99.90
2018-09-23T06:37:23.526Z,99.90
2018-09-23T06:39:52.341Z,99.90
2018-09-23T06:42:21.154Z,99.90
2018-09-23T06:44:49.978Z,99.90
2018-09-23T06:47:18.731Z,99.90
2018-09-23T06:49:47.680Z,99.90
2018-09-23T06:52:16.463Z,99.90
2018-09-23T06:54:45.206Z,99.90
2018-09-23T06:57:14.329Z,99.90
2018-09-23T06:59:43.070Z,99.90
2018-09-23T07:02:12.016Z,99.90
2018-09-23T07:04:40.972Z,99.90
2018-09-23T07:07:09.606Z,99.90
2018-09-23T07:09:38.410Z,99.90
2018-09-23T07:12:07.288Z,99.90
2018-09-23T07:14:36.033Z,99.90
2018-09-23T07:17:04.793Z,99.90
2018-09-23T07:19:33.655Z,99.90
2018-09-23T07:22:02.660Z,99.90
2018-09-23T07:24:31.612Z,99.90
2018-09-23T07:27:00.521Z,99.90
2018-09-23T07:29:29.393Z,99.90
2018-09-23T07:31:58.171Z,99.90
2018-09-23T07:34:26.914Z,99.90
2018-09-23T07:36:55.815Z,99.90
2018-09-23T07:39:24.601Z,99.90
2018-09-23T07:41:53.326Z,99.90
2018-09-23T07:44:22.259Z,99.90
2018-09-23T07:46:50.986Z,99.90
2018-09-23T07:49:20.043Z,99.90
2018-09-23T07:51:48.886Z,99.90
2018-09-23T07:54:17.738Z,99.90
2018-09-23T07:56:46.528Z,99.90
2018-09-23T07:59:15.314Z,99.90
2018-09-23T08:01:44.106Z,99.90
2018-09-23T08:04:12.903Z,99.90
2018-09-23T08:06:41.705Z,99.90
2018-09-23T08:09:10.921Z,99.90
2018-09-23T08:11:39.913Z,99.90
2018-09-23T08:14:09.397Z,99.90
2018-09-23T08:16:37.727Z,99.90
2018-09-23T08:19:06.998Z,99.90
2018-09-23T08:21:35.783Z,99.90
2018-09-23T08:24:04.565Z,99.90
2018-09-23T08:26:33.429Z,99.90
2018-09-23T08:29:02.463Z,99.90
2018-09-23T08:31:31.278Z,99.90
2018-09-23T08:34:00.245Z,99.90
2018-09-23T08:36:29.027Z,99.90
2018-09-23T08:38:57.786Z,99.90
2018-09-23T08:41:26.614Z,99.90
2018-09-23T08:43:55.465Z,99.90
2018-09-23T08:46:24.530Z,99.90
2018-09-23T08:48:53.355Z,99.90
2018-09-23T08:51:22.228Z,99.90
2018-09-23T08:53:51.056Z,99.90
2018-09-23T08:56:19.926Z,99.90
2018-09-23T08:58:48.683Z,99.90
2018-09-23T09:01:17.468Z,99.90
2018-09-23T09:03:46.423Z,99.90
2018-09-23T09:06:15.266Z,99.90
2018-09-23T09:08:44.013Z,99.90
2018-09-23T09:11:12.853Z,99.90
2018-09-23T09:13:41.743Z,99.90
2018-09-23T09:16:10.625Z,99.90
2018-09-23T09:18:39.767Z,99.90
2018-09-23T09:21:08.470Z,99.90
2018-09-23T09:23:37.301Z,99.90
2018-09-23T09:26:06.049Z,98.90
2018-09-23T09:28:34.844Z,99.90
2018-09-23T09:31:03.777Z,99.30
2018-09-23T09:33:32.551Z,98.80
2018-09-23T09:36:01.329Z,98.30
2018-09-23T09:38:30.271Z,99.00
2018-09-23T09:40:58.941Z,99.50
2018-09-23T09:43:27.725Z,99.50
2018-09-23T09:45:57.321Z,99.30
2018-09-23T09:48:26.109Z,98.50
2018-09-23T09:50:54.885Z,99.30
2018-09-23T09:53:23.696Z,99.50
2018-09-23T09:55:52.538Z,98.60
2018-09-23T09:58:21.281Z,99.00
2018-09-23T10:00:50.160Z,98.80
2018-09-23T10:03:19.377Z,99.90
2018-09-23T10:05:48.206Z,99.10
2018-09-23T10:08:16.986Z,97.90
2018-09-23T10:10:45.825Z,99.20
2018-09-23T10:13:14.556Z,98.40
2018-09-23T10:15:43.486Z,98.30
2018-09-23T10:18:12.397Z,97.80
2018-09-23T10:20:41.218Z,97.70
2018-09-23T10:23:10.102Z,99.90
2018-09-23T10:25:38.920Z,99.90
2018-09-23T10:28:07.860Z,99.90
2018-09-23T10:30:36.637Z,99.90
2018-09-23T10:33:05.455Z,99.90
2018-09-23T10:35:34.535Z,99.70
2018-09-23T10:38:03.261Z,98.60
2018-09-23T10:40:32.101Z,97.80
2018-09-23T10:43:00.854Z,97.60
2018-09-23T10:45:29.680Z,96.50
2018-09-23T10:47:58.494Z,96.60
2018-09-23T10:50:27.285Z,95.90
2018-09-23T10:52:56.158Z,97.10
2018-09-23T10:55:24.954Z,97.60
2018-09-23T10:57:53.966Z,98.70
2018-09-23T11:00:22.797Z,99.90
2018-09-23T11:02:51.638Z,99.90
2018-09-23T11:05:20.763Z,99.60
2018-09-23T11:07:49.613Z,99.70
2018-09-23T11:10:18.425Z,99.90
2018-09-23T11:12:47.400Z,99.90
2018-09-23T11:15:16.218Z,99.90
2018-09-23T11:17:45.014Z,99.90
2018-09-23T11:20:13.841Z,99.90
2018-09-23T11:22:42.753Z,99.90
2018-09-23T11:25:11.597Z,99.90
2018-09-23T11:27:40.446Z,99.90
2018-09-23T11:30:09.306Z,99.90
2018-09-23T11:32:38.088Z,99.90
2018-09-23T11:35:07.112Z,99.90
2018-09-23T11:37:36.126Z,99.90
2018-09-23T11:40:05.275Z,99.90
2018-09-23T11:42:33.969Z,99.90
2018-09-23T11:45:03.082Z,99.90
2018-09-23T11:47:31.845Z,99.90
2018-09-23T11:50:00.962Z,99.90
2018-09-23T11:52:30.236Z,99.90
2018-09-23T11:54:59.055Z,99.90
2018-09-23T11:57:27.822Z,99.90
2018-09-23T11:59:56.931Z,99.90
2018-09-23T12:02:25.833Z,99.90
2018-09-23T12:04:54.805Z,99.90
2018-09-23T12:07:23.606Z,99.90
2018-09-23T12:09:52.402Z,99.90
2018-09-23T12:12:21.383Z,99.90
2018-09-23T12:14:50.256Z,99.90
2018-09-23T12:17:19.001Z,99.90
2018-09-23T12:19:47.793Z,99.90
2018-09-23T12:22:16.590Z,99.90
2018-09-23T12:24:45.358Z,99.90
2018-09-23T12:27:14.241Z,99.90
2018-09-23T12:29:43.098Z,99.90
2018-09-23T12:32:11.762Z,99.90
2018-09-23T12:34:40.551Z,99.90
2018-09-23T12:37:09.377Z,99.90
2018-09-23T12:39:38.145Z,99.90
2018-09-23T12:42:06.919Z,99.90
2018-09-23T12:44:35.746Z,99.90
2018-09-23T12:47:04.551Z,99.90
2018-09-23T12:49:33.378Z,99.90
2018-09-23T12:52:02.192Z,99.90
2018-09-23T12:54:31.002Z,99.90
2018-09-23T12:56:59.769Z,99.90
2018-09-23T12:59:28.593Z,99.90
2018-09-23T13:01:57.474Z,99.90
2018-09-23T13:04:26.258Z,99.90
2018-09-23T13:06:55.061Z,99.90
2018-09-23T13:09:23.892Z,99.90
2018-09-23T13:11:52.681Z,99.90
2018-09-23T13:14:21.532Z,99.90
2018-09-23T13:16:50.290Z,99.90
2018-09-23T13:19:19.125Z,99.90
2018-09-23T13:21:47.809Z,99.90
2018-09-23T13:24:16.693Z,99.90
2018-09-23T13:26:45.475Z,99.90
2018-09-23T13:29:14.236Z,99.90
2018-09-23T13:31:43.184Z,99.90
2018-09-23T13:34:11.962Z,99.90
2018-09-23T13:36:40.693Z,99.90
2018-09-23T13:39:09.629Z,99.90
2018-09-23T13:41:38.439Z,99.90
2018-09-23T13:44:07.253Z,99.90
2018-09-23T13:46:36.057Z,99.90
2018-09-23T13:49:05.089Z,99.90
2018-09-23T13:51:33.981Z,99.90
2018-09-23T13:54:02.756Z,99.90
2018-09-23T13:56:31.530Z,99.90
2018-09-23T13:59:00.303Z,99.90
2018-09-23T14:01:29.106Z,99.90
2018-09-23T14:03:58.053Z,99.90
2018-09-23T14:06:26.881Z,99.90
2018-09-23T14:08:55.665Z,99.90
2018-09-23T14:11:24.441Z,99.90
2018-09-23T14:13:53.218Z,99.90
2018-09-23T14:16:22.076Z,99.90
2018-09-23T14:18:50.989Z,99.90
2018-09-23T14:21:19.840Z,99.90
2018-09-23T14:23:48.646Z,99.90
2018-09-23T14:26:17.413Z,99.90
2018-09-23T14:28:46.334Z,99.90
2018-09-23T14:31:15.075Z,99.90
2018-09-23T14:33:43.872Z,99.90
2018-09-23T14:36:12.992Z,99.90
2018-09-23T14:38:41.788Z,99.90
2018-09-23T14:41:10.541Z,99.90
2018-09-23T14:43:39.738Z,99.90
2018-09-23T14:46:08.524Z,99.90
2018-09-23T14:48:37.334Z,99.90
2018-09-23T14:51:11.721Z,99.90
2018-09-23T14:53:40.613Z,99.90
2018-09-23T14:56:09.378Z,99.90
2018-09-23T14:58:38.369Z,99.90
2018-09-23T15:01:07.249Z,99.90
2018-09-23T15:03:36.028Z,99.90
2018-09-23T15:06:05.227Z,99.90
2018-09-23T15:08:34.017Z,99.90
2018-09-23T15:11:02.808Z,99.90
2018-09-23T15:13:31.981Z,99.90
2018-09-23T15:16:00.887Z,99.90
2018-09-23T15:18:29.720Z,99.90
2018-09-23T15:20:58.455Z,99.90
2018-09-23T15:23:27.314Z,99.90
2018-09-23T15:25:56.080Z,99.90
2018-09-23T15:31:00.283Z,99.90
2018-09-23T15:33:29.054Z,99.90
2018-09-23T15:35:57.916Z,99.90
2018-09-23T15:38:26.610Z,99.90
2018-09-23T15:40:55.950Z,99.90
2018-09-23T15:43:24.889Z,99.90
2018-09-23T15:45:54.310Z,99.90
2018-09-23T15:48:23.111Z,99.90
2018-09-23T15:50:51.897Z,99.90
2018-09-23T15:53:20.820Z,99.90
2018-09-23T15:55:49.544Z,99.90
2018-09-23T15:58:19.325Z,99.90
2018-09-23T16:00:48.581Z,99.90
2018-09-23T16:03:17.435Z,99.90
2018-09-23T16:05:46.262Z,99.90
2018-09-23T16:08:15.059Z,99.90
2018-09-23T16:10:43.884Z,99.90
2018-09-23T16:13:12.666Z,99.90
2018-09-23T16:15:41.419Z,99.90
2018-09-23T16:18:10.286Z,99.90
2018-09-23T16:20:39.053Z,99.90
2018-09-23T16:23:08.538Z,99.90
2018-09-23T16:25:37.256Z,99.90
2018-09-23T16:28:06.103Z,99.90
2018-09-23T16:30:35.305Z,99.90
2018-09-23T16:33:04.430Z,99.90
2018-09-23T16:35:33.202Z,99.90
2018-09-23T16:38:01.969Z,99.90
2018-09-23T16:40:31.548Z,99.90
2018-09-23T16:43:00.756Z,99.90
2018-09-23T16:45:29.891Z,99.90
2018-09-23T16:47:58.918Z,99.90
2018-09-23T16:50:27.941Z,99.90
2018-09-23T16:52:56.749Z,99.90
2018-09-23T16:55:26.158Z,99.90
2018-09-23T16:57:55.051Z,99.90
2018-09-23T17:00:24.044Z,99.90
2018-09-23T17:02:52.847Z,99.90
2018-09-23T17:05:21.743Z,99.90
2018-09-23T17:07:50.668Z,99.90
2018-09-23T17:10:19.882Z,99.90
2018-09-23T17:12:48.686Z,99.90
2018-09-23T17:15:17.508Z,99.90
2018-09-23T17:17:46.573Z,99.90
2018-09-23T17:20:15.774Z,99.90
2018-09-23T17:22:44.573Z,99.90
2018-09-23T17:25:13.569Z,99.90
2018-09-23T17:27:43.144Z,99.90
2018-09-23T17:30:12.316Z,99.90
2018-09-23T17:32:41.078Z,99.90
2018-09-23T17:35:10.621Z,99.90
2018-09-23T17:37:39.477Z,99.90
2018-09-23T17:40:08.271Z,99.90
2018-09-23T17:42:37.058Z,99.90
2018-09-23T17:45:05.846Z,99.90
2018-09-23T17:47:35.429Z,99.90
2018-09-23T17:50:04.210Z,99.90
2018-09-23T17:52:32.966Z,99.90
2018-09-23T17:55:01.814Z,99.90
2018-09-23T17:57:30.629Z,99.90
2018-09-23T17:59:59.524Z,99.90
2018-09-23T18:02:29.124Z,99.90
2018-09-23T18:04:57.946Z,99.90
2018-09-23T18:07:27.819Z,99.90
2018-09-23T18:09:56.964Z,99.90
2018-09-23T18:12:25.803Z,99.90
2018-09-23T18:14:54.805Z,99.90
2018-09-23T18:17:23.533Z,99.90
2018-09-23T18:19:52.308Z,99.90
2018-09-23T18:22:21.876Z,99.90
2018-09-23T18:24:50.616Z,99.90
2018-09-23T18:27:19.421Z,99.90
2018-09-23T18:29:48.596Z,99.90
2018-09-23T18:32:17.463Z,99.90
2018-09-23T18:34:46.265Z,99.90
2018-09-23T18:37:15.859Z,99.90
2018-09-23T18:39:44.581Z,99.90
2018-09-23T18:42:13.363Z,99.90
2018-09-23T18:44:42.156Z,99.90
2018-09-23T18:47:10.917Z,99.90
2018-09-23T18:49:40.092Z,99.90
2018-09-23T18:52:08.837Z,99.90
2018-09-23T18:54:42.990Z,99.90
2018-09-23T18:57:11.805Z,99.90
2018-09-23T18:59:40.580Z,99.90
2018-09-23T19:02:09.391Z,99.90
2018-09-23T19:04:38.167Z,99.90
2018-09-23T19:07:07.551Z,99.90
2018-09-23T19:09:36.446Z,99.90
2018-09-23T19:12:05.218Z,99.90
2018-09-23T19:14:33.994Z,99.90
2018-09-23T19:17:02.765Z,99.90
2018-09-23T19:19:36.945Z,99.90
2018-09-23T19:22:09.954Z,99.90
2018-09-23T19:24:38.721Z,99.90
2018-09-23T19:27:07.508Z,99.90
2018-09-23T19:29:36.294Z,99.90
2018-09-23T19:32:05.222Z,99.90
2018-09-23T19:34:34.169Z,99.90
2018-09-23T19:37:02.993Z,99.90
2018-09-23T19:39:31.921Z,99.90
2018-09-23T19:42:00.686Z,99.90
2018-09-23T19:44:29.475Z,99.90
2018-09-23T19:46:58.357Z,99.90
2018-09-23T19:49:27.125Z,99.90
2018-09-23T19:51:55.958Z,99.90
2018-09-23T19:54:24.759Z,99.90
2018-09-23T19:56:53.569Z,99.90
2018-09-23T19:59:22.462Z,99.90
2018-09-23T20:01:51.233Z,99.90
2018-09-23T20:04:20.043Z,99.90
2018-09-23T20:06:48.837Z,99.90
2018-09-23T20:09:17.597Z,99.90
2018-09-23T20:11:46.634Z,99.90
2018-09-23T20:14:15.413Z,99.90
2018-09-23T20:16:44.182Z,99.90
2018-09-23T20:19:12.966Z,99.90
2018-09-23T20:21:41.779Z,99.90
2018-09-23T20:24:10.566Z,99.90
2018-09-23T20:26:39.357Z,99.90
2018-09-23T20:29:08.223Z,99.90
2018-09-23T20:31:43.714Z,99.90
2018-09-23T20:34:12.606Z,99.90
2018-09-23T20:36:41.313Z,99.90
2018-09-23T20:39:11.176Z,99.90
2018-09-23T20:41:39.966Z,99.90
2018-09-23T20:44:08.730Z,99.90
2018-09-23T20:46:37.655Z,99.90
2018-09-23T20:49:06.438Z,99.90
2018-09-23T20:51:35.197Z,99.90
2018-09-23T20:54:04.251Z,99.90
2018-09-23T20:56:33.054Z,99.90
2018-09-23T20:59:01.812Z,99.90
2018-09-23T21:01:30.688Z,99.90
2018-09-23T21:03:59.516Z,99.90
2018-09-23T21:06:28.265Z,99.90
2018-09-23T21:08:57.050Z,99.90
2018-09-23T21:11:25.856Z,99.90
2018-09-23T21:13:54.685Z,99.90
2018-09-23T21:16:23.467Z,99.90
2018-09-23T21:18:52.294Z,99.90
2018-09-23T21:21:21.201Z,99.90
2018-09-23T21:23:49.989Z,99.90
2018-09-23T21:26:19.057Z,99.90
2018-09-23T21:28:47.825Z,99.90
2018-09-23T21:31:16.614Z,99.90
2018-09-23T21:33:45.453Z,99.90
2018-09-23T21:36:14.189Z,99.90
2018-09-23T21:38:42.999Z,99.90
2018-09-23T21:41:11.757Z,99.90
2018-09-23T21:43:40.551Z,99.90
2018-09-23T21:46:09.370Z,99.90
2018-09-23T21:48:38.190Z,99.90
2018-09-23T21:51:06.976Z,99.90
2018-09-23T21:53:35.769Z,99.90
2018-09-23T21:56:04.563Z,99.90
2018-09-23T21:58:33.309Z,99.90
2018-09-23T22:01:02.366Z,99.90
2018-09-23T22:03:31.159Z,99.90
2018-09-23T22:05:59.901Z,99.90
2018-09-23T22:08:28.917Z,99.90
2018-09-23T22:10:57.734Z,99.90
2018-09-23T22:13:26.594Z,99.90
2018-09-23T22:15:55.385Z,99.90
2018-09-23T22:18:24.163Z,99.90
2018-09-23T22:20:52.966Z,99.90
2018-09-23T22:23:21.824Z,99.90
2018-09-23T22:25:50.656Z,99.90
2018-09-23T22:28:19.449Z,99.90
2018-09-23T22:30:48.220Z,99.90
2018-09-23T22:33:17.091Z,99.90
2018-09-23T22:35:46.013Z,99.90
2018-09-23T22:38:14.806Z,99.90
2018-09-23T22:40:43.671Z,99.90
2018-09-23T22:43:12.571Z,99.90
2018-09-23T22:45:41.366Z,99.90
2018-09-23T22:48:10.158Z,99.90
2018-09-23T22:50:38.981Z,99.90
2018-09-23T22:53:07.773Z,99.90
2018-09-23T22:55:36.565Z,99.90
2018-09-23T22:58:05.610Z,99.90
2018-09-23T23:00:34.399Z,99.90
2018-09-23T23:03:03.239Z,99.90
2018-09-23T23:05:32.107Z,99.90
2018-09-23T23:08:00.908Z,99.90
2018-09-23T23:10:30.095Z,99.90
2018-09-23T23:12:58.969Z,99.90
2018-09-23T23:15:27.778Z,99.90
2018-09-23T23:17:56.563Z,99.90
2018-09-23T23:20:25.364Z,99.90
2018-09-23T23:22:54.213Z,99.90
2018-09-23T23:25:23.257Z,99.90
2018-09-23T23:27:52.106Z,99.90
2018-09-23T23:30:20.849Z,99.90
2018-09-23T23:32:49.641Z,99.90
2018-09-23T23:35:18.445Z,99.90
2018-09-23T23:37:47.238Z,99.90
2018-09-23T23:40:16.031Z,99.90
2018-09-23T23:42:44.880Z,99.90
2018-09-23T23:45:13.661Z,99.90
2018-09-23T23:47:42.714Z,99.90
2018-09-23T23:50:11.449Z,99.90
2018-09-23T23:52:40.296Z,99.90
2018-09-23T23:55:09.042Z,99.90
2018-09-23T23:57:37.825Z,99.90
